createdAt,value
2022-08-10T00:00:23.414Z,1023.82
2022-08-10T00:01:23.438Z,1023.85
2022-08-10T00:02:23.387Z,1023.87
2022-08-10T00:03:23.399Z,1023.91
2022-08-10T00:04:23.733Z,1023.88
2022-08-10T00:05:23.383Z,1023.91
2022-08-10T00:06:23.372Z,1023.93
2022-08-10T00:07:23.377Z,1023.95
2022-08-10T00:08:24.158Z,1023.95
2022-08-10T00:09:23.427Z,1023.94
2022-08-10T00:10:23.363Z,1023.95
2022-08-10T00:11:23.389Z,1023.97
2022-08-10T00:12:23.379Z,1023.95
2022-08-10T00:13:23.394Z,1023.94
2022-08-10T00:14:23.375Z,1023.97
2022-08-10T00:15:53.165Z,1023.98
2022-08-10T00:16:23.366Z,1023.97
2022-08-10T00:17:23.335Z,1023.95
2022-08-10T00:18:34.996Z,1023.94
2022-08-10T00:19:23.342Z,1023.92
2022-08-10T00:20:23.321Z,1023.96
2022-08-10T00:21:23.326Z,1024.00
2022-08-10T00:22:23.318Z,1023.94
2022-08-10T00:23:23.318Z,1023.98
2022-08-10T00:24:23.313Z,1023.98
2022-08-10T00:25:23.310Z,1023.93
2022-08-10T00:26:23.309Z,1023.95
2022-08-10T00:28:01.318Z,1023.95
2022-08-10T00:28:23.299Z,1023.97
2022-08-10T00:29:23.298Z,1023.95
2022-08-10T00:30:23.292Z,1023.96
2022-08-10T00:31:23.288Z,1023.93
2022-08-10T00:32:23.287Z,1023.90
2022-08-10T00:33:23.282Z,1023.90
2022-08-10T00:34:23.277Z,1023.90
2022-08-10T00:35:23.277Z,1023.89
2022-08-10T00:36:23.274Z,1023.90
2022-08-10T00:37:23.268Z,1023.89
2022-08-10T00:38:23.264Z,1023.89
2022-08-10T00:39:23.282Z,1023.85
2022-08-10T00:40:37.841Z,1023.83
2022-08-10T00:41:23.268Z,1023.82
2022-08-10T00:42:23.255Z,1023.78
2022-08-10T00:43:24.144Z,1023.75
2022-08-10T00:44:23.244Z,1023.76
2022-08-10T00:45:23.244Z,1023.72
2022-08-10T00:46:23.240Z,1023.73
2022-08-10T00:47:37.281Z,1023.75
2022-08-10T00:48:23.229Z,1023.77
2022-08-10T00:49:23.223Z,1023.74
2022-08-10T00:50:23.219Z,1023.72
2022-08-10T00:51:23.217Z,1023.71
2022-08-10T00:52:23.219Z,1023.66
2022-08-10T00:53:23.211Z,1023.64
2022-08-10T00:54:24.430Z,1023.66
2022-08-10T00:55:23.203Z,1023.64
2022-08-10T00:57:12.373Z,1023.62
2022-08-10T00:57:23.195Z,1023.66
2022-08-10T00:58:23.197Z,1023.66
2022-08-10T00:59:23.184Z,1023.66
2022-08-10T01:00:23.186Z,1023.69
2022-08-10T01:02:09.565Z,1023.64
2022-08-10T01:02:23.230Z,1023.64
2022-08-10T01:04:40.052Z,1023.65
2022-08-10T01:04:54.658Z,1023.65
2022-08-10T01:05:23.168Z,1023.66
2022-08-10T01:06:23.162Z,1023.63
2022-08-10T01:07:23.161Z,1023.62
2022-08-10T01:08:23.159Z,1023.64
2022-08-10T01:09:23.149Z,1023.66
2022-08-10T01:10:23.147Z,1023.63
2022-08-10T01:11:42.347Z,1023.62
2022-08-10T01:12:39.043Z,1023.59
2022-08-10T01:13:23.213Z,1023.60
2022-08-10T01:14:23.131Z,1023.61
2022-08-10T01:15:23.131Z,1023.61
2022-08-10T01:16:23.123Z,1023.63
2022-08-10T01:17:23.126Z,1023.67
2022-08-10T01:18:23.112Z,1023.63
2022-08-10T01:19:23.115Z,1023.65
2022-08-10T01:20:30.323Z,1023.65
2022-08-10T01:21:23.106Z,1023.65
2022-08-10T01:22:23.100Z,1023.63
2022-08-10T01:23:23.097Z,1023.67
2022-08-10T01:24:23.223Z,1023.64
2022-08-10T01:25:23.090Z,1023.70
2022-08-10T01:26:31.035Z,1023.62
2022-08-10T01:27:26.954Z,1023.62
2022-08-10T01:28:23.076Z,1023.61
2022-08-10T01:29:23.071Z,1023.64
2022-08-10T01:30:23.066Z,1023.66
2022-08-10T01:31:23.071Z,1023.64
2022-08-10T01:32:23.058Z,1023.64
2022-08-10T01:35:18.097Z,1023.60
2022-08-10T01:35:55.184Z,1023.60
2022-08-10T01:36:55.179Z,1023.53
2022-08-10T01:37:55.176Z,1023.56
2022-08-10T01:38:55.182Z,1023.58
2022-08-10T01:39:55.251Z,1023.55
2022-08-10T01:40:55.162Z,1023.56
2022-08-10T01:41:55.159Z,1023.58
2022-08-10T01:42:55.155Z,1023.54
2022-08-10T01:43:55.154Z,1023.57
2022-08-10T01:44:55.148Z,1023.58
2022-08-10T01:45:55.146Z,1023.62
2022-08-10T01:46:56.923Z,1023.59
2022-08-10T01:47:55.147Z,1023.56
2022-08-10T01:48:55.132Z,1023.58
2022-08-10T01:49:55.127Z,1023.55
2022-08-10T01:50:59.814Z,1023.53
2022-08-10T01:51:55.121Z,1023.53
2022-08-10T01:52:55.116Z,1023.50
2022-08-10T01:53:55.110Z,1023.45
2022-08-10T01:54:56.125Z,1023.47
2022-08-10T01:55:55.112Z,1023.49
2022-08-10T01:56:55.102Z,1023.46
2022-08-10T01:57:55.097Z,1023.48
2022-08-10T01:58:55.091Z,1023.48
2022-08-10T02:00:02.086Z,1023.47
2022-08-10T02:00:55.135Z,1023.49
2022-08-10T02:01:55.078Z,1023.51
2022-08-10T02:02:55.075Z,1023.50
2022-08-10T02:04:03.702Z,1023.50
2022-08-10T02:04:55.068Z,1023.46
2022-08-10T02:05:55.078Z,1023.46
2022-08-10T02:06:55.063Z,1023.49
2022-08-10T02:07:55.053Z,1023.48
2022-08-10T02:08:55.832Z,1023.50
2022-08-10T02:09:55.047Z,1023.50
2022-08-10T02:10:55.040Z,1023.48
2022-08-10T02:12:07.784Z,1023.52
2022-08-10T02:12:55.030Z,1023.51
2022-08-10T02:13:55.028Z,1023.53
2022-08-10T02:14:55.026Z,1023.50
2022-08-10T02:16:01.146Z,1023.53
2022-08-10T02:16:55.016Z,1023.53
2022-08-10T02:18:00.526Z,1023.50
2022-08-10T02:18:55.007Z,1023.51
2022-08-10T02:19:55.001Z,1023.53
2022-08-10T02:20:55.003Z,1023.54
2022-08-10T02:22:35.124Z,1023.55
2022-08-10T02:22:54.990Z,1023.54
2022-08-10T02:23:59.619Z,1023.51
2022-08-10T02:24:54.984Z,1023.48
2022-08-10T02:25:54.980Z,1023.46
2022-08-10T02:26:56.435Z,1023.47
2022-08-10T02:27:54.966Z,1023.51
2022-08-10T02:28:54.966Z,1023.48
2022-08-10T02:29:54.965Z,1023.47
2022-08-10T02:30:54.954Z,1023.52
2022-08-10T02:31:54.949Z,1023.45
2022-08-10T02:32:54.946Z,1023.51
2022-08-10T02:33:57.439Z,1023.54
2022-08-10T02:34:54.939Z,1023.54
2022-08-10T02:35:55.871Z,1023.52
2022-08-10T02:36:54.930Z,1023.49
2022-08-10T02:37:54.926Z,1023.54
2022-08-10T02:38:58.874Z,1023.50
2022-08-10T02:39:54.914Z,1023.50
2022-08-10T02:45:01.952Z,1023.47
2022-08-10T02:45:14.711Z,1023.50
2022-08-10T02:45:18.652Z,1023.48
2022-08-10T02:45:21.963Z,1023.45
2022-08-10T02:45:29.430Z,1023.48
2022-08-10T02:45:54.890Z,1023.44
2022-08-10T02:46:54.885Z,1023.45
2022-08-10T02:47:54.884Z,1023.48
2022-08-10T02:48:54.875Z,1023.46
2022-08-10T02:49:54.870Z,1023.43
2022-08-10T02:50:54.868Z,1023.43
2022-08-10T02:52:07.971Z,1023.45
2022-08-10T02:52:54.858Z,1023.44
2022-08-10T02:53:57.247Z,1023.39
2022-08-10T02:54:54.849Z,1023.41
2022-08-10T02:55:54.844Z,1023.40
2022-08-10T02:56:54.850Z,1023.43
2022-08-10T02:58:16.922Z,1023.45
2022-08-10T02:58:54.830Z,1023.42
2022-08-10T02:59:54.829Z,1023.43
2022-08-10T03:00:54.898Z,1023.50
2022-08-10T03:01:54.816Z,1023.48
2022-08-10T03:02:54.817Z,1023.50
2022-08-10T03:03:54.810Z,1023.49
2022-08-10T03:04:57.742Z,1023.52
2022-08-10T03:05:54.802Z,1023.49
2022-08-10T03:06:54.793Z,1023.53
2022-08-10T03:07:54.787Z,1023.54
2022-08-10T03:08:54.789Z,1023.53
2022-08-10T03:09:54.794Z,1023.51
2022-08-10T03:10:54.779Z,1023.53
2022-08-10T03:12:35.282Z,1023.52
2022-08-10T03:12:55.038Z,1023.50
2022-08-10T03:13:59.845Z,1023.51
2022-08-10T03:14:54.760Z,1023.51
2022-08-10T03:15:54.751Z,1023.49
2022-08-10T03:16:54.748Z,1023.51
2022-08-10T03:17:57.755Z,1023.55
2022-08-10T03:18:54.747Z,1023.51
2022-08-10T03:20:35.737Z,1023.51
2022-08-10T03:20:54.732Z,1023.48
2022-08-10T03:21:54.727Z,1023.50
2022-08-10T03:22:54.723Z,1023.50
2022-08-10T03:23:54.711Z,1023.53
2022-08-10T03:24:54.712Z,1023.48
2022-08-10T03:25:55.054Z,1023.52
2022-08-10T03:26:54.702Z,1023.51
2022-08-10T03:27:54.698Z,1023.51
2022-08-10T03:28:54.696Z,1023.48
2022-08-10T03:30:28.522Z,1023.49
2022-08-10T03:30:54.738Z,1023.52
2022-08-10T03:31:54.679Z,1023.49
2022-08-10T03:32:54.677Z,1023.49
2022-08-10T03:33:54.671Z,1023.47
2022-08-10T03:34:54.667Z,1023.50
2022-08-10T03:36:41.691Z,1023.52
2022-08-10T03:36:54.656Z,1023.51
2022-08-10T03:37:59.238Z,1023.50
2022-08-10T03:38:54.649Z,1023.52
2022-08-10T03:39:54.643Z,1023.52
2022-08-10T03:40:54.638Z,1023.52
2022-08-10T03:41:54.634Z,1023.48
2022-08-10T03:42:54.629Z,1023.52
2022-08-10T03:43:54.626Z,1023.56
2022-08-10T03:44:54.619Z,1023.55
2022-08-10T03:45:56.482Z,1023.54
2022-08-10T03:46:54.611Z,1023.54
2022-08-10T03:47:54.605Z,1023.57
2022-08-10T03:48:54.600Z,1023.56
2022-08-10T03:49:54.596Z,1023.57
2022-08-10T03:50:54.592Z,1023.59
2022-08-10T03:51:54.586Z,1023.60
2022-08-10T03:52:54.578Z,1023.60
2022-08-10T03:54:02.930Z,1023.60
2022-08-10T03:54:54.572Z,1023.63
2022-08-10T03:56:30.495Z,1023.59
2022-08-10T03:56:54.564Z,1023.57
2022-08-10T03:57:54.558Z,1023.57
2022-08-10T03:58:54.556Z,1023.56
2022-08-10T03:59:54.545Z,1023.57
2022-08-10T04:00:54.602Z,1023.55
2022-08-10T04:02:44.141Z,1023.55
2022-08-10T04:02:54.773Z,1023.57
2022-08-10T04:04:11.550Z,1023.59
2022-08-10T04:04:54.524Z,1023.59
2022-08-10T04:05:54.530Z,1023.59
2022-08-10T04:06:55.388Z,1023.59
2022-08-10T04:07:54.512Z,1023.59
2022-08-10T04:08:54.505Z,1023.62
2022-08-10T04:09:56.420Z,1023.62
2022-08-10T04:10:54.496Z,1023.65
2022-08-10T04:11:54.489Z,1023.66
2022-08-10T04:12:54.489Z,1023.71
2022-08-10T04:13:54.480Z,1023.70
2022-08-10T04:14:54.477Z,1023.74
2022-08-10T04:15:54.470Z,1023.79
2022-08-10T04:16:54.469Z,1023.75
2022-08-10T04:18:05.115Z,1023.75
2022-08-10T04:18:54.466Z,1023.74
2022-08-10T04:19:54.449Z,1023.75
2022-08-10T04:20:54.446Z,1023.73
2022-08-10T04:21:54.447Z,1023.74
2022-08-10T04:22:54.436Z,1023.74
2022-08-10T04:23:54.435Z,1023.76
2022-08-10T04:24:54.423Z,1023.72
2022-08-10T04:25:54.420Z,1023.75
2022-08-10T04:26:54.419Z,1023.78
2022-08-10T04:27:54.411Z,1023.78
2022-08-10T04:28:54.408Z,1023.77
2022-08-10T04:29:54.400Z,1023.79
2022-08-10T04:30:54.396Z,1023.79
2022-08-10T04:31:54.396Z,1023.80
2022-08-10T04:32:54.392Z,1023.77
2022-08-10T04:33:54.384Z,1023.79
2022-08-10T04:34:54.377Z,1023.80
2022-08-10T04:35:54.375Z,1023.81
2022-08-10T04:36:54.379Z,1023.80
2022-08-10T04:37:54.362Z,1023.82
2022-08-10T04:38:54.358Z,1023.81
2022-08-10T04:39:54.354Z,1023.83
2022-08-10T04:40:54.348Z,1023.84
2022-08-10T04:41:54.339Z,1023.83
2022-08-10T04:42:54.336Z,1023.87
2022-08-10T04:43:54.334Z,1023.83
2022-08-10T04:44:54.328Z,1023.86
2022-08-10T04:45:54.327Z,1023.85
2022-08-10T04:46:58.552Z,1023.86
2022-08-10T04:48:00.544Z,1023.88
2022-08-10T04:49:01.611Z,1023.90
2022-08-10T04:49:56.882Z,1023.91
2022-08-10T04:50:54.298Z,1023.90
2022-08-10T04:51:54.429Z,1023.90
2022-08-10T04:52:54.303Z,1023.88
2022-08-10T04:54:05.454Z,1023.91
2022-08-10T04:54:54.284Z,1023.91
2022-08-10T04:55:54.280Z,1023.93
2022-08-10T04:56:54.275Z,1023.89
2022-08-10T04:57:54.270Z,1023.94
2022-08-10T04:58:54.271Z,1023.92
2022-08-10T04:59:54.257Z,1023.94
2022-08-10T05:00:54.443Z,1023.94
2022-08-10T05:02:22.435Z,1023.95
2022-08-10T05:02:54.248Z,1023.99
2022-08-10T05:04:37.304Z,1024.00
2022-08-10T05:04:54.242Z,1023.94
2022-08-10T05:05:54.245Z,1023.96
2022-08-10T05:06:54.235Z,1023.98
2022-08-10T05:07:56.959Z,1023.98
2022-08-10T05:08:54.231Z,1024.00
2022-08-10T05:10:01.597Z,1023.99
2022-08-10T05:10:54.224Z,1024.01
2022-08-10T05:11:54.216Z,1024.06
2022-08-10T05:12:54.220Z,1024.05
2022-08-10T05:13:54.212Z,1024.05
2022-08-10T05:14:54.756Z,1024.08
2022-08-10T05:15:54.202Z,1024.09
2022-08-10T05:16:54.202Z,1024.08
2022-08-10T05:18:06.845Z,1024.10
2022-08-10T05:18:54.195Z,1024.09
2022-08-10T05:20:03.718Z,1024.08
2022-08-10T05:20:54.189Z,1024.08
2022-08-10T05:22:03.755Z,1024.12
2022-08-10T05:22:54.186Z,1024.12
2022-08-10T05:23:54.181Z,1024.14
2022-08-10T05:24:54.179Z,1024.12
2022-08-10T05:25:54.181Z,1024.15
2022-08-10T05:27:00.279Z,1024.11
2022-08-10T05:27:57.480Z,1024.14
2022-08-10T05:28:54.172Z,1024.18
2022-08-10T05:30:01.802Z,1024.12
2022-08-10T05:30:54.163Z,1024.15
2022-08-10T05:31:54.165Z,1024.14
2022-08-10T05:32:59.157Z,1024.13
2022-08-10T05:33:54.166Z,1024.16
2022-08-10T05:34:54.165Z,1024.21
2022-08-10T05:35:57.844Z,1024.13
2022-08-10T05:36:54.154Z,1024.16
2022-08-10T05:38:12.019Z,1024.15
2022-08-10T05:38:54.153Z,1024.15
2022-08-10T05:39:54.186Z,1024.15
2022-08-10T05:40:54.155Z,1024.11
2022-08-10T05:41:54.139Z,1024.15
2022-08-10T05:42:54.144Z,1024.13
2022-08-10T05:43:54.142Z,1024.16
2022-08-10T05:44:54.152Z,1024.17
2022-08-10T05:46:17.006Z,1024.19
2022-08-10T05:46:54.138Z,1024.18
2022-08-10T05:48:54.290Z,1024.18
2022-08-10T05:49:00.006Z,1024.17
2022-08-10T05:49:54.132Z,1024.18
2022-08-10T05:50:54.136Z,1024.16
2022-08-10T05:51:54.133Z,1024.17
2022-08-10T05:52:54.131Z,1024.20
2022-08-10T05:54:00.956Z,1024.23
2022-08-10T05:54:54.126Z,1024.23
2022-08-10T05:55:54.126Z,1024.20
2022-08-10T05:56:58.087Z,1024.24
2022-08-10T05:57:54.122Z,1024.17
2022-08-10T05:58:54.142Z,1024.23
2022-08-10T06:00:10.686Z,1024.23
2022-08-10T06:00:54.276Z,1024.25
2022-08-10T06:02:31.681Z,1024.21
2022-08-10T06:02:54.118Z,1024.26
2022-08-10T06:03:54.115Z,1024.24
2022-08-10T06:04:54.117Z,1024.26
2022-08-10T06:05:54.128Z,1024.24
2022-08-10T06:06:54.120Z,1024.23
2022-08-10T06:07:54.112Z,1024.26
2022-08-10T06:08:54.116Z,1024.20
2022-08-10T06:09:59.910Z,1024.20
2022-08-10T06:12:26.566Z,1024.24
2022-08-10T06:12:28.404Z,1024.17
2022-08-10T06:12:56.644Z,1024.19
2022-08-10T06:14:13.137Z,1024.24
2022-08-10T06:14:59.774Z,1024.24
2022-08-10T06:15:54.112Z,1024.26
2022-08-10T06:16:54.113Z,1024.28
2022-08-10T06:18:01.815Z,1024.24
2022-08-10T06:18:54.114Z,1024.26
2022-08-10T06:19:54.122Z,1024.25
2022-08-10T06:20:54.115Z,1024.28
2022-08-10T06:22:01.155Z,1024.23
2022-08-10T06:22:54.116Z,1024.23
2022-08-10T06:23:54.113Z,1024.26
2022-08-10T06:25:21.748Z,1024.23
2022-08-10T06:26:12.027Z,1024.28
2022-08-10T06:26:54.117Z,1024.31
2022-08-10T06:27:54.116Z,1024.31
2022-08-10T06:29:02.638Z,1024.21
2022-08-10T06:29:54.123Z,1024.27
2022-08-10T06:30:54.121Z,1024.28
2022-08-10T06:31:54.120Z,1024.32
2022-08-10T06:32:54.125Z,1024.29
2022-08-10T06:33:54.123Z,1024.29
2022-08-10T06:34:54.124Z,1024.35
2022-08-10T06:35:54.131Z,1024.29
2022-08-10T06:36:54.297Z,1024.29
2022-08-10T06:37:54.128Z,1024.28
2022-08-10T06:38:54.377Z,1024.31
2022-08-10T06:39:54.165Z,1024.29
2022-08-10T06:40:54.132Z,1024.28
2022-08-10T06:42:14.307Z,1024.28
2022-08-10T06:42:54.135Z,1024.32
2022-08-10T06:43:54.135Z,1024.22
2022-08-10T06:44:54.140Z,1024.26
2022-08-10T06:46:07.423Z,1024.28
2022-08-10T06:46:54.142Z,1024.21
2022-08-10T06:47:54.143Z,1024.25
2022-08-10T06:48:54.146Z,1024.27
2022-08-10T06:49:54.145Z,1024.24
2022-08-10T06:50:57.920Z,1024.24
2022-08-10T06:51:57.013Z,1024.24
2022-08-10T06:52:54.152Z,1024.25
2022-08-10T06:53:55.236Z,1024.20
2022-08-10T06:54:54.157Z,1024.19
2022-08-10T06:55:56.407Z,1024.18
2022-08-10T06:57:16.482Z,1024.16
2022-08-10T06:57:59.677Z,1024.18
2022-08-10T06:58:54.165Z,1024.15
2022-08-10T06:59:54.165Z,1024.13
2022-08-10T07:00:54.242Z,1024.13
2022-08-10T07:01:54.240Z,1024.16
2022-08-10T07:02:54.172Z,1024.13
2022-08-10T07:03:54.174Z,1024.12
2022-08-10T07:04:54.177Z,1024.15
2022-08-10T07:05:54.181Z,1024.16
2022-08-10T07:06:54.190Z,1024.16
2022-08-10T07:07:54.187Z,1024.11
2022-08-10T07:08:54.188Z,1024.11
2022-08-10T07:09:54.187Z,1024.13
2022-08-10T07:10:54.190Z,1024.11
2022-08-10T07:11:54.188Z,1024.11
2022-08-10T07:12:54.199Z,1024.08
2022-08-10T07:14:15.696Z,1024.08
2022-08-10T07:14:54.199Z,1024.06
2022-08-10T07:15:59.745Z,1024.11
2022-08-10T07:16:54.207Z,1024.08
2022-08-10T07:17:54.207Z,1024.06
2022-08-10T07:18:54.210Z,1024.08
2022-08-10T07:19:54.212Z,1024.05
2022-08-10T07:20:54.216Z,1024.03
2022-08-10T07:21:57.899Z,1024.05
2022-08-10T07:23:08.239Z,1024.02
2022-08-10T07:23:59.208Z,1024.05
2022-08-10T07:24:54.225Z,1024.04
2022-08-10T07:25:54.230Z,1024.06
2022-08-10T07:26:54.232Z,1024.10
2022-08-10T07:27:58.675Z,1024.10
2022-08-10T07:28:54.239Z,1024.05
2022-08-10T07:29:54.903Z,1024.08
2022-08-10T07:30:54.244Z,1024.09
2022-08-10T07:31:57.201Z,1024.12
2022-08-10T07:32:54.252Z,1024.11
2022-08-10T07:33:54.254Z,1024.09
2022-08-10T07:34:54.260Z,1024.08
2022-08-10T07:35:54.260Z,1024.12
2022-08-10T07:36:54.265Z,1024.11
2022-08-10T07:37:54.268Z,1024.16
2022-08-10T07:38:54.273Z,1024.14
2022-08-10T07:40:02.645Z,1024.16
2022-08-10T07:40:54.279Z,1024.19
2022-08-10T07:41:54.286Z,1024.19
2022-08-10T07:42:54.289Z,1024.12
2022-08-10T07:43:54.291Z,1024.14
2022-08-10T07:44:54.296Z,1024.14
2022-08-10T07:45:54.305Z,1024.14
2022-08-10T07:46:54.302Z,1024.14
2022-08-10T07:47:54.979Z,1024.14
2022-08-10T07:48:54.316Z,1024.14
2022-08-10T07:49:54.316Z,1024.18
2022-08-10T07:50:54.320Z,1024.14
2022-08-10T07:51:55.143Z,1024.16
2022-08-10T07:52:54.328Z,1024.23
2022-08-10T07:53:54.344Z,1024.20
2022-08-10T07:54:54.334Z,1024.21
2022-08-10T07:56:04.730Z,1024.20
2022-08-10T07:56:54.341Z,1024.20
2022-08-10T07:57:54.349Z,1024.23
2022-08-10T07:58:54.353Z,1024.24
2022-08-10T07:59:54.370Z,1024.24
2022-08-10T08:00:54.363Z,1024.24
2022-08-10T08:01:54.448Z,1024.28
2022-08-10T08:02:54.370Z,1024.22
2022-08-10T08:04:05.417Z,1024.25
2022-08-10T08:04:54.381Z,1024.25
2022-08-10T08:06:02.701Z,1024.23
2022-08-10T08:06:54.388Z,1024.21
2022-08-10T08:07:54.393Z,1024.22
2022-08-10T08:08:54.398Z,1024.20
2022-08-10T08:09:57.626Z,1024.22
2022-08-10T08:10:54.411Z,1024.21
2022-08-10T08:11:54.412Z,1024.20
2022-08-10T08:12:54.416Z,1024.22
2022-08-10T08:13:54.424Z,1024.22
2022-08-10T08:14:54.428Z,1024.17
2022-08-10T08:16:18.481Z,1024.15
2022-08-10T08:16:54.435Z,1024.07
2022-08-10T08:17:59.764Z,1024.06
2022-08-10T08:19:23.956Z,1024.06
2022-08-10T08:19:55.606Z,1024.07
2022-08-10T08:20:54.466Z,1024.07
2022-08-10T08:24:04.979Z,1024.06
2022-08-10T08:24:05.581Z,1024.07
2022-08-10T08:24:06.969Z,1024.02
2022-08-10T08:24:54.468Z,1023.91
2022-08-10T08:25:54.471Z,1023.99
2022-08-10T08:26:54.475Z,1023.99
2022-08-10T08:27:54.478Z,1024.02
2022-08-10T08:28:54.479Z,1023.96
2022-08-10T08:29:54.482Z,1023.95
2022-08-10T08:30:54.485Z,1023.97
2022-08-10T08:32:01.920Z,1023.98
2022-08-10T08:32:54.489Z,1024.01
2022-08-10T08:33:54.492Z,1024.00
2022-08-10T08:34:54.491Z,1023.98
2022-08-10T08:35:54.494Z,1024.01
2022-08-10T08:36:59.213Z,1024.00
2022-08-10T08:38:29.506Z,1023.99
2022-08-10T08:38:54.505Z,1023.97
2022-08-10T08:39:54.501Z,1023.99
2022-08-10T08:40:54.501Z,1024.00
2022-08-10T08:41:54.508Z,1023.99
2022-08-10T08:42:54.509Z,1023.95
2022-08-10T08:43:54.513Z,1023.92
2022-08-10T08:44:54.507Z,1023.94
2022-08-10T08:46:01.542Z,1023.90
2022-08-10T08:46:59.287Z,1023.96
2022-08-10T08:48:05.514Z,1023.91
2022-08-10T08:48:54.512Z,1023.92
2022-08-10T08:50:08.982Z,1023.94
2022-08-10T08:50:57.559Z,1023.91
2022-08-10T08:52:09.419Z,1023.88
2022-08-10T08:52:54.518Z,1023.89
2022-08-10T08:54:02.934Z,1023.87
2022-08-10T08:54:54.522Z,1023.87
2022-08-10T08:56:05.421Z,1023.91
2022-08-10T08:56:54.521Z,1023.90
2022-08-10T08:57:54.521Z,1023.90
2022-08-10T08:58:54.524Z,1023.90
2022-08-10T08:59:54.523Z,1023.89
2022-08-10T09:00:54.523Z,1023.93
2022-08-10T09:01:54.604Z,1023.90
2022-08-10T09:02:55.113Z,1023.88
2022-08-10T09:03:54.525Z,1023.89
2022-08-10T09:04:54.523Z,1023.87
2022-08-10T09:06:00.199Z,1023.89
2022-08-10T09:06:54.525Z,1023.89
2022-08-10T09:08:02.320Z,1023.84
2022-08-10T09:08:54.525Z,1023.87
2022-08-10T09:09:54.529Z,1023.84
2022-08-10T09:10:54.527Z,1023.85
2022-08-10T09:11:54.537Z,1023.78
2022-08-10T09:12:54.554Z,1023.77
2022-08-10T09:13:54.526Z,1023.73
2022-08-10T09:14:54.523Z,1023.74
2022-08-10T09:15:57.478Z,1023.76
2022-08-10T09:16:54.528Z,1023.74
2022-08-10T09:17:54.528Z,1023.77
2022-08-10T09:18:54.530Z,1023.78
2022-08-10T09:19:54.530Z,1023.79
2022-08-10T09:20:54.529Z,1023.83
2022-08-10T09:22:13.443Z,1023.85
2022-08-10T09:22:57.413Z,1023.79
2022-08-10T09:24:05.380Z,1023.78
2022-08-10T09:24:54.528Z,1023.81
2022-08-10T09:25:54.531Z,1023.77
2022-08-10T09:26:54.536Z,1023.80
2022-08-10T09:27:54.534Z,1023.82
2022-08-10T09:29:11.483Z,1023.80
2022-08-10T09:29:54.535Z,1023.81
2022-08-10T09:31:21.010Z,1023.77
2022-08-10T09:33:05.382Z,1023.77
2022-08-10T09:36:16.604Z,1023.77
2022-08-10T09:36:24.600Z,1023.80
2022-08-10T09:36:25.758Z,1023.79
2022-08-10T09:36:29.788Z,1023.78
2022-08-10T09:36:54.539Z,1023.73
2022-08-10T09:38:02.327Z,1023.71
2022-08-10T09:38:54.543Z,1023.74
2022-08-10T09:40:56.325Z,1023.73
2022-08-10T09:41:01.159Z,1023.72
2022-08-10T09:41:54.540Z,1023.72
2022-08-10T09:43:21.603Z,1023.67
2022-08-10T09:43:54.539Z,1023.68
2022-08-10T09:44:57.401Z,1023.65
2022-08-10T09:45:54.539Z,1023.69
2022-08-10T09:46:54.541Z,1023.63
2022-08-10T09:48:02.111Z,1023.61
2022-08-10T09:48:54.543Z,1023.63
2022-08-10T09:49:56.396Z,1023.62
2022-08-10T09:51:54.545Z,1023.60
2022-08-10T09:52:58.935Z,1023.61
2022-08-10T09:53:54.544Z,1023.55
2022-08-10T09:54:54.542Z,1023.57
2022-08-10T09:56:17.410Z,1023.58
2022-08-10T09:57:03.079Z,1023.58
2022-08-10T09:57:55.003Z,1023.57
2022-08-10T09:59:26.574Z,1023.54
2022-08-10T10:00:01.522Z,1023.54
2022-08-10T10:00:54.546Z,1023.55
2022-08-10T10:02:02.651Z,1023.54
2022-08-10T10:02:54.598Z,1023.56
2022-08-10T10:03:54.566Z,1023.58
2022-08-10T10:04:54.546Z,1023.57
2022-08-10T10:05:54.547Z,1023.56
2022-08-10T10:06:54.547Z,1023.55
2022-08-10T10:07:54.550Z,1023.55
2022-08-10T10:08:58.461Z,1023.52
2022-08-10T10:09:54.547Z,1023.51
2022-08-10T10:10:54.548Z,1023.50
2022-08-10T10:11:54.547Z,1023.48
2022-08-10T10:12:54.552Z,1023.46
2022-08-10T10:14:03.737Z,1023.46
2022-08-10T10:14:54.549Z,1023.45
2022-08-10T10:15:54.549Z,1023.46
2022-08-10T10:16:54.553Z,1023.44
2022-08-10T10:17:54.551Z,1023.40
2022-08-10T10:18:54.565Z,1023.44
2022-08-10T10:19:54.547Z,1023.41
2022-08-10T10:20:54.552Z,1023.40
2022-08-10T10:21:56.609Z,1023.39
2022-08-10T10:22:54.547Z,1023.37
2022-08-10T10:24:21.640Z,1023.32
2022-08-10T10:24:54.563Z,1023.34
2022-08-10T10:25:57.768Z,1023.31
2022-08-10T10:26:54.557Z,1023.31
2022-08-10T10:27:54.553Z,1023.29
2022-08-10T10:29:56.675Z,1023.32
2022-08-10T10:30:54.555Z,1023.32
2022-08-10T10:31:54.562Z,1023.30
2022-08-10T10:32:57.799Z,1023.27
2022-08-10T10:33:54.561Z,1023.26
2022-08-10T10:34:54.558Z,1023.24
2022-08-10T10:35:54.557Z,1023.23
2022-08-10T10:36:54.559Z,1023.21
2022-08-10T10:38:01.103Z,1023.19
2022-08-10T10:38:54.564Z,1023.18
2022-08-10T10:39:54.631Z,1023.17
2022-08-10T10:40:54.580Z,1023.16
2022-08-10T10:42:03.175Z,1023.19
2022-08-10T10:42:54.561Z,1023.14
2022-08-10T10:43:54.575Z,1023.11
2022-08-10T10:44:54.562Z,1023.16
2022-08-10T10:45:54.565Z,1023.16
2022-08-10T10:46:54.563Z,1023.13
2022-08-10T10:47:54.566Z,1023.19
2022-08-10T10:48:54.563Z,1023.14
2022-08-10T10:49:54.564Z,1023.15
2022-08-10T10:50:54.573Z,1023.17
2022-08-10T10:51:54.578Z,1023.22
2022-08-10T10:52:54.570Z,1023.19
2022-08-10T10:53:54.575Z,1023.18
2022-08-10T10:54:54.581Z,1023.20
2022-08-10T10:56:15.105Z,1023.14
2022-08-10T10:56:54.572Z,1023.11
2022-08-10T10:58:00.466Z,1023.10
2022-08-10T10:58:54.589Z,1023.08
2022-08-10T10:59:57.619Z,1023.12
2022-08-10T11:00:54.589Z,1023.10
2022-08-10T11:01:54.582Z,1023.09
2022-08-10T11:02:54.608Z,1023.09
2022-08-10T11:03:54.598Z,1023.11
2022-08-10T11:04:57.347Z,1023.09
2022-08-10T11:05:54.587Z,1023.12
2022-08-10T11:06:54.594Z,1023.08
2022-08-10T11:07:54.943Z,1023.02
2022-08-10T11:08:54.597Z,1023.01
2022-08-10T11:10:09.664Z,1023.02
2022-08-10T11:10:54.577Z,1022.99
2022-08-10T11:12:02.160Z,1022.98
2022-08-10T11:12:54.579Z,1022.95
2022-08-10T11:14:28.537Z,1022.95
2022-08-10T11:14:54.582Z,1022.96
2022-08-10T11:15:54.583Z,1022.97
2022-08-10T11:16:57.162Z,1022.98
2022-08-10T11:17:54.601Z,1022.99
2022-08-10T11:18:54.618Z,1023.02
2022-08-10T11:20:02.924Z,1023.00
2022-08-10T11:20:54.585Z,1022.98
2022-08-10T11:21:54.601Z,1022.96
2022-08-10T11:22:54.591Z,1022.97
2022-08-10T11:24:49.018Z,1022.96
2022-08-10T11:24:54.590Z,1022.95
2022-08-10T11:25:54.591Z,1022.95
2022-08-10T11:26:54.613Z,1022.93
2022-08-10T11:27:54.616Z,1022.90
2022-08-10T11:28:54.613Z,1022.85
2022-08-10T11:29:54.596Z,1022.89
2022-08-10T11:30:54.595Z,1022.89
2022-08-10T11:31:54.609Z,1022.88
2022-08-10T11:32:54.631Z,1022.89
2022-08-10T11:34:46.269Z,1022.87
2022-08-10T11:35:10.524Z,1022.89
2022-08-10T11:35:54.609Z,1022.86
2022-08-10T11:36:54.602Z,1022.84
2022-08-10T11:38:31.669Z,1022.80
2022-08-10T11:39:13.495Z,1022.80
2022-08-10T11:39:54.666Z,1022.77
2022-08-10T11:40:54.624Z,1022.76
2022-08-10T11:42:09.302Z,1022.74
2022-08-10T11:42:54.608Z,1022.74
2022-08-10T11:43:54.611Z,1022.74
2022-08-10T11:44:54.614Z,1022.76
2022-08-10T11:45:55.556Z,1022.71
2022-08-10T11:46:54.637Z,1022.71
2022-08-10T11:47:54.626Z,1022.67
2022-08-10T11:48:57.038Z,1022.70
2022-08-10T11:49:54.640Z,1022.68
2022-08-10T11:50:54.630Z,1022.71
2022-08-10T11:51:54.621Z,1022.66
2022-08-10T11:52:54.636Z,1022.72
2022-08-10T11:53:54.619Z,1022.67
2022-08-10T11:54:54.629Z,1022.68
2022-08-10T11:55:54.622Z,1022.72
2022-08-10T11:56:58.457Z,1022.67
2022-08-10T11:57:55.671Z,1022.71
2022-08-10T11:58:54.645Z,1022.70
2022-08-10T11:59:58.146Z,1022.64
2022-08-10T12:00:54.621Z,1022.64
2022-08-10T12:01:54.657Z,1022.67
2022-08-10T12:02:54.659Z,1022.64
2022-08-10T12:03:54.632Z,1022.61
2022-08-10T12:04:54.652Z,1022.57
2022-08-10T12:05:55.408Z,1022.60
2022-08-10T12:06:56.238Z,1022.53
2022-08-10T12:10:06.240Z,1022.57
2022-08-10T12:10:09.094Z,1022.54